YCL weather

Charlo Airport
Charlo, New Brunswick, Canada

Public forecast

Using degrees Celsius for public forecast. Weather courtesy of forecast.io.

Closest aviation weather report (METAR) to Charlo Airport

Closest report is Bathurst Airport, 32.2 nm (59.7 km) SE. Retrieved 2019/10/16 10:00 UTC (50 minutes ago):

CZBF 161000Z AUTO 20003KT 9SM CLR M01/M02 A3003 RMK SLP175

Closest aviation forecast (TAF) to Charlo Airport

Closest forecast is Bathurst Airport, 32.2 nm (59.7 km) SE. Retrieved 2019/10/16 09:42 UTC (1 hour ago):

TAF CZBF 160838Z 1609/1621 25005KT P6SM FEW050 BECMG 1619/1621 VRB03KT RMK FCST BASED ON AUTO OBS NXT FCST BY 161400Z